createdAt,value
2019-03-10T00:00:26.002Z,988.27
2019-03-10T00:01:26.225Z,988.24
2019-03-10T00:02:26.450Z,988.22
2019-03-10T00:03:26.676Z,988.26
2019-03-10T00:04:26.897Z,988.24
2019-03-10T00:05:27.123Z,988.22
2019-03-10T00:06:27.353Z,988.21
2019-03-10T00:07:27.570Z,988.20
2019-03-10T00:08:27.794Z,988.19
2019-03-10T00:09:28.018Z,988.24
2019-03-10T00:10:28.243Z,988.25
2019-03-10T00:11:28.469Z,988.17
2019-03-10T00:12:28.700Z,988.12
2019-03-10T00:13:28.922Z,988.15
2019-03-10T00:14:29.146Z,988.08
2019-03-10T00:15:29.371Z,988.10
2019-03-10T00:16:29.600Z,988.10
2019-03-10T00:17:29.817Z,988.08
2019-03-10T00:18:30.040Z,988.13
2019-03-10T00:19:30.264Z,988.07
2019-03-10T00:20:30.487Z,988.09
2019-03-10T00:21:30.712Z,988.10
2019-03-10T00:22:30.937Z,988.08
2019-03-10T00:23:31.159Z,988.04
2019-03-10T00:24:31.382Z,988.02
2019-03-10T00:25:31.609Z,988.03
2019-03-10T00:26:31.834Z,987.96
2019-03-10T00:27:32.057Z,987.99
2019-03-10T00:28:32.283Z,988.02
2019-03-10T00:29:32.505Z,988.01
2019-03-10T00:30:32.729Z,987.97
2019-03-10T00:31:32.964Z,987.97
2019-03-10T00:32:33.173Z,987.96
2019-03-10T00:33:33.404Z,987.92
2019-03-10T00:34:33.612Z,988.02
2019-03-10T00:35:33.838Z,988.01
2019-03-10T00:36:34.064Z,988.00
2019-03-10T00:37:34.282Z,988.02
2019-03-10T00:38:34.509Z,988.00
2019-03-10T00:39:34.728Z,987.94
2019-03-10T00:40:34.953Z,987.93
2019-03-10T00:41:35.174Z,987.96
2019-03-10T00:42:35.398Z,987.98
2019-03-10T00:43:35.621Z,987.98
2019-03-10T00:44:35.848Z,987.96
2019-03-10T00:45:36.073Z,987.95
2019-03-10T00:46:36.296Z,987.96
2019-03-10T00:47:36.519Z,988.04
2019-03-10T00:48:36.743Z,988.03
2019-03-10T00:49:36.968Z,988.03
2019-03-10T00:50:37.190Z,988.00
2019-03-10T00:51:37.418Z,988.02
2019-03-10T00:52:37.637Z,988.01
2019-03-10T00:53:37.858Z,988.03
2019-03-10T00:54:38.081Z,988.05
2019-03-10T00:55:38.311Z,988.08
2019-03-10T00:56:38.527Z,988.06
2019-03-10T00:57:38.779Z,988.01
2019-03-10T00:58:38.972Z,988.07
2019-03-10T00:59:39.198Z,988.08
2019-03-10T01:00:39.418Z,988.14
2019-03-10T01:01:39.641Z,988.10
2019-03-10T01:02:39.865Z,988.09
2019-03-10T01:03:40.086Z,988.06
2019-03-10T01:04:40.311Z,988.07
2019-03-10T01:05:40.535Z,988.10
2019-03-10T01:06:40.759Z,988.03
2019-03-10T01:07:40.982Z,988.03
2019-03-10T01:08:41.205Z,988.02
2019-03-10T01:09:41.428Z,987.98
2019-03-10T01:10:41.647Z,988.00
2019-03-10T01:11:41.870Z,987.97
2019-03-10T01:12:42.094Z,987.93
2019-03-10T01:13:42.318Z,987.93
2019-03-10T01:14:42.542Z,987.94
2019-03-10T01:15:42.765Z,987.93
2019-03-10T01:16:42.990Z,987.89
2019-03-10T01:17:43.214Z,987.84
2019-03-10T01:18:43.438Z,987.76
2019-03-10T01:19:43.665Z,987.73
2019-03-10T01:20:43.892Z,987.63
2019-03-10T01:21:44.110Z,987.54
2019-03-10T01:22:44.333Z,987.53
2019-03-10T01:23:44.556Z,987.44
2019-03-10T01:24:44.783Z,987.42
2019-03-10T01:25:45.001Z,987.44
2019-03-10T01:26:45.227Z,987.43
2019-03-10T01:27:45.501Z,987.49
2019-03-10T01:28:45.670Z,987.51
2019-03-10T01:29:45.893Z,987.51
2019-03-10T01:30:46.117Z,987.53
2019-03-10T01:31:46.341Z,987.54
2019-03-10T01:32:46.563Z,987.51
2019-03-10T01:33:46.787Z,987.50
2019-03-10T01:34:47.011Z,987.54
2019-03-10T01:35:47.255Z,987.54
2019-03-10T01:36:47.460Z,987.55
2019-03-10T01:37:47.685Z,987.54
2019-03-10T01:38:47.909Z,987.52
2019-03-10T01:39:48.128Z,987.51
2019-03-10T01:40:48.352Z,987.50
2019-03-10T01:41:48.576Z,987.52
2019-03-10T01:42:48.805Z,987.48
2019-03-10T01:43:49.027Z,987.49
2019-03-10T01:44:49.253Z,987.46
2019-03-10T01:45:49.470Z,987.45
2019-03-10T01:46:49.701Z,987.42
2019-03-10T01:47:49.921Z,987.33
2019-03-10T01:48:50.147Z,987.33
2019-03-10T01:49:50.372Z,987.33
2019-03-10T01:50:50.596Z,987.32
2019-03-10T01:51:50.843Z,987.26
2019-03-10T01:52:51.036Z,987.25
2019-03-10T01:53:51.262Z,987.29
2019-03-10T01:54:51.491Z,987.29
2019-03-10T01:55:51.710Z,987.26
2019-03-10T01:56:51.932Z,987.23
2019-03-10T01:57:52.156Z,987.25
2019-03-10T01:58:52.410Z,987.25
2019-03-10T01:59:52.638Z,987.21
2019-03-10T02:00:52.856Z,987.16
2019-03-10T02:01:53.081Z,987.19
2019-03-10T02:02:53.303Z,987.20
2019-03-10T02:03:53.526Z,987.18
2019-03-10T02:04:53.748Z,987.19
2019-03-10T02:05:53.974Z,987.15
2019-03-10T02:06:54.199Z,987.06
2019-03-10T02:07:54.424Z,987.09
2019-03-10T02:08:54.648Z,987.10
2019-03-10T02:09:54.871Z,987.13
2019-03-10T02:10:55.102Z,987.11
2019-03-10T02:11:55.319Z,987.15
2019-03-10T02:12:55.543Z,987.10
2019-03-10T02:13:55.769Z,987.14
2019-03-10T02:14:55.992Z,987.10
2019-03-10T02:15:56.211Z,987.07
2019-03-10T02:16:56.436Z,986.94
2019-03-10T02:17:56.661Z,986.88
2019-03-10T02:18:56.885Z,986.86
2019-03-10T02:19:57.109Z,986.82
2019-03-10T02:20:57.329Z,986.75
2019-03-10T02:21:57.553Z,986.74
2019-03-10T02:22:57.776Z,986.71
2019-03-10T02:23:57.999Z,986.71
2019-03-10T02:24:58.223Z,986.67
2019-03-10T02:25:58.447Z,986.64
2019-03-10T02:26:58.669Z,986.57
2019-03-10T02:27:58.894Z,986.56
2019-03-10T02:28:59.117Z,986.53
2019-03-10T02:29:59.342Z,986.52
2019-03-10T02:30:59.565Z,986.48
2019-03-10T02:31:59.819Z,986.46
2019-03-10T02:33:00.013Z,986.46
2019-03-10T02:34:00.235Z,986.39
2019-03-10T02:35:00.591Z,986.29
2019-03-10T02:36:00.683Z,986.28
2019-03-10T02:37:00.907Z,986.27
2019-03-10T02:38:01.167Z,986.26
2019-03-10T02:39:01.366Z,986.24
2019-03-10T02:40:01.581Z,986.26
2019-03-10T02:41:01.801Z,986.28
2019-03-10T02:42:02.024Z,986.25
2019-03-10T02:43:02.238Z,986.22
2019-03-10T02:44:02.463Z,986.26
2019-03-10T02:45:02.690Z,986.22
2019-03-10T02:46:02.907Z,986.17
2019-03-10T02:47:03.122Z,986.13
2019-03-10T02:48:03.340Z,986.11
2019-03-10T02:49:03.563Z,986.12
2019-03-10T02:50:03.784Z,986.11
2019-03-10T02:51:04.014Z,986.13
2019-03-10T02:52:04.228Z,986.05
2019-03-10T02:53:04.459Z,986.07
2019-03-10T02:54:04.676Z,986.06
2019-03-10T02:55:04.900Z,986.03
2019-03-10T02:56:05.111Z,985.97
2019-03-10T02:57:05.334Z,985.92
2019-03-10T02:58:05.555Z,985.86
2019-03-10T02:59:05.780Z,985.80
2019-03-10T03:00:06.003Z,985.74
2019-03-10T03:01:06.235Z,985.75
2019-03-10T03:02:06.446Z,985.71
2019-03-10T03:03:06.672Z,985.69
2019-03-10T03:04:06.890Z,985.65
2019-03-10T03:05:07.117Z,985.63
2019-03-10T03:06:07.338Z,985.55
2019-03-10T03:07:07.565Z,985.57
2019-03-10T03:08:07.789Z,985.50
2019-03-10T03:09:08.016Z,985.48
2019-03-10T03:10:08.236Z,985.47
2019-03-10T03:11:08.457Z,985.43
2019-03-10T03:12:08.676Z,985.39
2019-03-10T03:13:08.904Z,985.39
2019-03-10T03:14:09.123Z,985.36
2019-03-10T03:15:09.369Z,985.26
2019-03-10T03:16:09.569Z,985.29
2019-03-10T03:17:09.795Z,985.28
2019-03-10T03:18:10.017Z,985.26
2019-03-10T03:19:10.244Z,985.22
2019-03-10T03:20:10.463Z,985.19
2019-03-10T03:21:10.689Z,985.14
2019-03-10T03:22:10.913Z,985.11
2019-03-10T03:23:11.178Z,985.10
2019-03-10T03:24:11.360Z,985.10
2019-03-10T03:25:11.591Z,985.07
2019-03-10T03:26:11.805Z,985.07
2019-03-10T03:27:12.030Z,985.06
2019-03-10T03:28:12.253Z,985.05
2019-03-10T03:29:12.477Z,985.05
2019-03-10T03:30:12.703Z,985.05
2019-03-10T03:31:12.923Z,985.08
2019-03-10T03:32:13.148Z,985.09
2019-03-10T03:33:13.375Z,985.02
2019-03-10T03:34:13.596Z,985.07
2019-03-10T03:35:13.822Z,985.04
2019-03-10T03:36:14.047Z,985.00
2019-03-10T03:37:14.263Z,984.97
2019-03-10T03:38:14.488Z,985.00
2019-03-10T03:39:14.722Z,985.00
2019-03-10T03:40:14.936Z,984.97
2019-03-10T03:41:15.167Z,984.93
2019-03-10T03:42:15.386Z,984.91
2019-03-10T03:43:15.619Z,984.94
2019-03-10T03:44:15.833Z,984.85
2019-03-10T03:45:16.065Z,984.86
2019-03-10T03:46:16.278Z,984.80
2019-03-10T03:47:16.507Z,984.81
2019-03-10T03:48:16.727Z,984.80
2019-03-10T03:49:16.952Z,984.79
2019-03-10T03:50:17.177Z,984.78
2019-03-10T03:51:17.405Z,984.71
2019-03-10T03:52:17.622Z,984.71
2019-03-10T03:53:17.851Z,984.68
2019-03-10T03:54:18.072Z,984.68
2019-03-10T03:55:18.302Z,984.61
2019-03-10T03:56:18.514Z,984.62
2019-03-10T03:57:18.748Z,984.59
2019-03-10T03:58:18.968Z,984.55
2019-03-10T03:59:19.189Z,984.55
2019-03-10T04:00:19.637Z,984.52
2019-03-10T04:01:19.588Z,984.56
2019-03-10T04:02:19.813Z,984.54
2019-03-10T04:03:20.039Z,984.52
2019-03-10T04:04:20.262Z,984.54
2019-03-10T04:05:20.494Z,984.51
2019-03-10T04:06:20.799Z,984.56
2019-03-10T04:07:20.955Z,984.50
2019-03-10T04:08:21.211Z,984.48
2019-03-10T04:09:21.387Z,984.44
2019-03-10T04:10:21.607Z,984.43
2019-03-10T04:11:21.832Z,984.41
2019-03-10T04:12:22.055Z,984.40
2019-03-10T04:13:22.279Z,984.38
2019-03-10T04:14:22.503Z,984.41
2019-03-10T04:15:22.729Z,984.37
2019-03-10T04:16:22.953Z,984.36
2019-03-10T04:17:23.180Z,984.35
2019-03-10T04:18:23.395Z,984.30
2019-03-10T04:19:23.623Z,984.29
2019-03-10T04:20:23.844Z,984.27
2019-03-10T04:21:24.078Z,984.22
2019-03-10T04:22:24.293Z,984.23
2019-03-10T04:23:24.513Z,984.19
2019-03-10T04:24:24.736Z,984.15
2019-03-10T04:25:24.964Z,984.13
2019-03-10T04:26:25.187Z,984.08
2019-03-10T04:27:25.413Z,984.06
2019-03-10T04:28:25.639Z,984.05
2019-03-10T04:29:25.858Z,984.05
2019-03-10T04:30:26.075Z,984.08
2019-03-10T04:31:26.304Z,984.00
2019-03-10T04:32:26.525Z,983.99
2019-03-10T04:33:26.750Z,984.03
2019-03-10T04:34:26.972Z,984.00
2019-03-10T04:35:27.195Z,983.98
2019-03-10T04:36:27.429Z,983.92
2019-03-10T04:37:27.646Z,983.89
2019-03-10T04:38:27.867Z,983.83
2019-03-10T04:39:28.128Z,983.81
2019-03-10T04:40:28.313Z,983.83
2019-03-10T04:41:28.540Z,983.80
2019-03-10T04:42:28.763Z,983.74
2019-03-10T04:43:28.987Z,983.71
2019-03-10T04:44:29.212Z,983.70
2019-03-10T04:45:29.436Z,983.67
2019-03-10T04:46:29.661Z,983.65
2019-03-10T04:47:29.885Z,983.65
2019-03-10T04:48:30.108Z,983.59
2019-03-10T04:49:30.326Z,983.54
2019-03-10T04:50:30.548Z,983.54
2019-03-10T04:51:30.772Z,983.51
2019-03-10T04:52:31.007Z,983.52
2019-03-10T04:53:31.220Z,983.47
2019-03-10T04:54:31.442Z,983.39
2019-03-10T04:55:31.669Z,983.40
2019-03-10T04:56:31.890Z,983.36
2019-03-10T04:57:32.113Z,983.34
2019-03-10T04:58:32.355Z,983.30
2019-03-10T04:59:32.567Z,983.25
2019-03-10T05:00:32.765Z,983.28
2019-03-10T05:01:33.039Z,983.26
2019-03-10T05:02:33.210Z,983.20
2019-03-10T05:03:33.436Z,983.16
2019-03-10T05:04:33.658Z,983.12
2019-03-10T05:05:33.881Z,983.12
2019-03-10T05:06:34.108Z,983.10
2019-03-10T05:07:34.331Z,983.06
2019-03-10T05:08:34.553Z,983.06
2019-03-10T05:09:34.781Z,983.09
2019-03-10T05:10:35.006Z,983.09
2019-03-10T05:11:35.227Z,983.06
2019-03-10T05:12:35.452Z,983.02
2019-03-10T05:13:35.677Z,983.01
2019-03-10T05:14:35.900Z,983.02
2019-03-10T05:15:36.125Z,982.96
2019-03-10T05:16:36.348Z,982.97
2019-03-10T05:17:36.572Z,982.98
2019-03-10T05:18:36.794Z,983.02
2019-03-10T05:19:37.023Z,982.95
2019-03-10T05:20:37.239Z,982.99
2019-03-10T05:21:37.470Z,982.98
2019-03-10T05:22:37.687Z,983.01
2019-03-10T05:23:37.910Z,982.99
2019-03-10T05:24:38.135Z,982.97
2019-03-10T05:25:38.357Z,982.98
2019-03-10T05:26:38.581Z,982.96
2019-03-10T05:27:38.809Z,982.94
2019-03-10T05:28:39.031Z,982.89
2019-03-10T05:29:39.252Z,982.92
2019-03-10T05:30:39.479Z,982.89
2019-03-10T05:31:39.706Z,982.86
2019-03-10T05:32:39.922Z,982.88
2019-03-10T05:33:40.145Z,982.84
2019-03-10T05:34:40.434Z,982.86
2019-03-10T05:35:40.592Z,982.87
2019-03-10T05:36:40.816Z,982.82
2019-03-10T05:37:41.038Z,982.83
2019-03-10T05:38:41.263Z,982.87
2019-03-10T05:39:41.486Z,982.80
2019-03-10T05:40:41.712Z,982.78
2019-03-10T05:41:41.935Z,982.80
2019-03-10T05:42:42.154Z,982.80
2019-03-10T05:43:42.379Z,982.77
2019-03-10T05:44:42.599Z,982.70
2019-03-10T05:45:42.824Z,982.72
2019-03-10T05:46:43.048Z,982.64
2019-03-10T05:47:43.287Z,982.68
2019-03-10T05:48:43.497Z,982.63
2019-03-10T05:49:43.719Z,982.61
2019-03-10T05:50:43.942Z,982.60
2019-03-10T05:51:44.170Z,982.57
2019-03-10T05:52:44.390Z,982.56
2019-03-10T05:53:44.616Z,982.54
2019-03-10T05:54:44.841Z,982.50
2019-03-10T05:55:45.063Z,982.52
2019-03-10T05:56:45.285Z,982.52
2019-03-10T05:57:45.510Z,982.47
2019-03-10T05:58:45.736Z,982.45
2019-03-10T05:59:45.951Z,982.48
2019-03-10T06:00:46.174Z,982.45
2019-03-10T06:01:46.398Z,982.45
2019-03-10T06:02:46.624Z,982.42
2019-03-10T06:03:46.845Z,982.39
2019-03-10T06:04:47.092Z,982.30
2019-03-10T06:05:47.293Z,982.27
2019-03-10T06:06:47.516Z,982.25
2019-03-10T06:07:47.743Z,982.25
2019-03-10T06:08:47.964Z,982.21
2019-03-10T06:09:48.186Z,982.20
2019-03-10T06:10:48.409Z,982.18
2019-03-10T06:11:48.634Z,982.11
2019-03-10T06:12:48.858Z,982.09
2019-03-10T06:13:49.083Z,982.06
2019-03-10T06:14:49.306Z,982.04
2019-03-10T06:15:49.540Z,981.99
2019-03-10T06:16:49.754Z,981.99
2019-03-10T06:17:49.981Z,981.96
2019-03-10T06:18:50.205Z,981.93
2019-03-10T06:19:50.427Z,981.92
2019-03-10T06:20:50.654Z,981.86
2019-03-10T06:21:50.880Z,981.88
2019-03-10T06:22:51.103Z,981.79
2019-03-10T06:23:51.324Z,981.80
2019-03-10T06:24:51.543Z,981.73
2019-03-10T06:25:51.772Z,981.71
2019-03-10T06:26:51.994Z,981.71
2019-03-10T06:27:52.218Z,981.67
2019-03-10T06:28:52.452Z,981.65
2019-03-10T06:29:52.667Z,981.62
2019-03-10T06:30:52.891Z,981.57
2019-03-10T06:31:53.115Z,981.56
2019-03-10T06:32:53.340Z,981.54
2019-03-10T06:33:53.563Z,981.49
2019-03-10T06:34:53.789Z,981.47
2019-03-10T06:35:54.013Z,981.46
2019-03-10T06:36:54.224Z,981.43
2019-03-10T06:37:54.446Z,981.45
2019-03-10T06:38:55.291Z,981.42
2019-03-10T06:39:54.892Z,981.37
2019-03-10T06:40:55.112Z,981.39
2019-03-10T06:41:55.335Z,981.36
2019-03-10T06:42:55.558Z,981.37
2019-03-10T06:43:55.781Z,981.27
2019-03-10T06:44:56.005Z,981.27
2019-03-10T06:45:56.228Z,981.26
2019-03-10T06:46:56.477Z,981.20
2019-03-10T06:47:56.690Z,981.23
2019-03-10T06:48:56.912Z,981.23
2019-03-10T06:49:57.149Z,981.23
2019-03-10T06:50:57.360Z,981.19
2019-03-10T06:51:57.583Z,981.18
2019-03-10T06:52:57.807Z,981.15
2019-03-10T06:53:58.031Z,981.10
2019-03-10T06:54:58.254Z,981.09
2019-03-10T06:55:58.478Z,981.09
2019-03-10T06:56:58.702Z,981.07
2019-03-10T06:57:58.929Z,981.08
2019-03-10T06:58:59.149Z,981.02
2019-03-10T06:59:59.373Z,980.97
2019-03-10T07:00:59.594Z,980.93
2019-03-10T07:01:59.826Z,980.92
2019-03-10T07:03:00.043Z,980.84
2019-03-10T07:04:00.266Z,980.82
2019-03-10T07:05:00.491Z,980.78
2019-03-10T07:06:00.714Z,980.73
2019-03-10T07:07:00.947Z,980.66
2019-03-10T07:08:01.162Z,980.67
2019-03-10T07:09:01.386Z,980.64
2019-03-10T07:10:01.610Z,980.59
2019-03-10T07:11:01.834Z,980.58
2019-03-10T07:12:02.057Z,980.50
2019-03-10T07:13:02.292Z,980.46
2019-03-10T07:14:02.521Z,980.37
2019-03-10T07:15:02.742Z,980.33
2019-03-10T07:16:02.966Z,980.28
2019-03-10T07:17:03.184Z,980.23
2019-03-10T07:18:03.407Z,980.17
2019-03-10T07:19:03.707Z,980.15
2019-03-10T07:20:03.854Z,980.18
2019-03-10T07:21:04.079Z,980.17
2019-03-10T07:22:04.303Z,980.09
2019-03-10T07:23:04.521Z,980.02
2019-03-10T07:24:04.749Z,980.02
2019-03-10T07:25:04.965Z,979.97
2019-03-10T07:26:05.196Z,979.97
2019-03-10T07:27:05.412Z,979.90
2019-03-10T07:28:05.638Z,979.82
2019-03-10T07:29:05.917Z,979.74
2019-03-10T07:30:06.091Z,979.70
2019-03-10T07:31:06.306Z,979.67
2019-03-10T07:32:08.867Z,979.58
2019-03-10T07:33:06.754Z,979.59
2019-03-10T07:34:06.984Z,979.58
2019-03-10T07:35:07.203Z,979.55
2019-03-10T07:36:07.430Z,979.54
2019-03-10T07:37:07.648Z,979.48
2019-03-10T07:38:07.869Z,979.42
2019-03-10T07:39:08.100Z,979.48
2019-03-10T07:40:08.321Z,979.54
2019-03-10T07:41:08.541Z,979.53
2019-03-10T07:42:08.767Z,979.43
2019-03-10T07:43:08.988Z,979.34
2019-03-10T07:44:09.214Z,979.24
2019-03-10T07:45:09.437Z,979.30
2019-03-10T07:46:09.661Z,979.53
2019-03-10T07:47:09.888Z,979.57
2019-03-10T07:48:10.124Z,979.40
2019-03-10T07:49:10.328Z,979.21
2019-03-10T07:50:10.553Z,979.01
2019-03-10T07:51:10.778Z,978.86
2019-03-10T07:52:19.915Z,978.90
2019-03-10T07:53:11.225Z,979.08
2019-03-10T07:54:11.448Z,979.15
2019-03-10T07:55:11.675Z,979.09
2019-03-10T07:56:11.897Z,979.03
2019-03-10T07:57:12.118Z,978.98
2019-03-10T07:58:12.350Z,978.99
2019-03-10T07:59:12.570Z,979.01
2019-03-10T08:00:12.787Z,978.97
2019-03-10T08:01:13.006Z,978.94
2019-03-10T08:02:13.234Z,978.93
2019-03-10T08:03:13.457Z,978.95
2019-03-10T08:04:13.679Z,978.95
2019-03-10T08:05:13.906Z,978.91
2019-03-10T08:06:14.126Z,978.90
2019-03-10T08:07:14.353Z,978.87
2019-03-10T08:08:14.571Z,978.82
2019-03-10T08:09:14.793Z,978.75
2019-03-10T08:10:15.018Z,978.74
2019-03-10T08:11:15.242Z,978.71
2019-03-10T08:12:15.465Z,978.68
2019-03-10T08:13:15.691Z,978.63
2019-03-10T08:14:15.912Z,978.58
2019-03-10T08:15:16.134Z,978.54
2019-03-10T08:16:16.362Z,978.55
2019-03-10T08:17:16.587Z,978.54
2019-03-10T08:18:16.802Z,978.46
2019-03-10T08:19:17.029Z,978.44
2019-03-10T08:20:17.255Z,978.41
2019-03-10T08:21:17.480Z,978.34
2019-03-10T08:22:17.698Z,978.37
2019-03-10T08:23:17.921Z,978.31
2019-03-10T08:24:18.147Z,978.28
2019-03-10T08:25:18.374Z,978.26
2019-03-10T08:26:18.588Z,978.25
2019-03-10T08:27:18.810Z,978.19
2019-03-10T08:28:20.391Z,978.14
2019-03-10T08:29:19.266Z,978.07
2019-03-10T08:30:19.525Z,978.03
2019-03-10T08:31:19.691Z,978.03
2019-03-10T08:32:19.910Z,978.02
2019-03-10T08:33:20.137Z,978.00
2019-03-10T08:34:20.362Z,977.96
2019-03-10T08:35:20.590Z,977.89
2019-03-10T08:36:20.812Z,977.92
2019-03-10T08:37:21.033Z,977.93
2019-03-10T08:38:21.258Z,977.90
2019-03-10T08:39:21.481Z,977.85
2019-03-10T08:40:21.705Z,977.84
2019-03-10T08:41:21.930Z,977.82
2019-03-10T08:42:22.156Z,977.77
2019-03-10T08:43:22.377Z,977.75
2019-03-10T08:44:22.598Z,977.80
2019-03-10T08:45:22.827Z,977.71
2019-03-10T08:46:23.057Z,977.74
2019-03-10T08:47:23.278Z,977.72
2019-03-10T08:48:23.501Z,977.68
2019-03-10T08:49:23.728Z,977.67
2019-03-10T08:50:23.954Z,977.61
2019-03-10T08:51:24.176Z,977.63
2019-03-10T08:52:24.398Z,977.61
2019-03-10T08:53:24.622Z,977.59
2019-03-10T08:54:24.849Z,977.56
2019-03-10T08:55:25.082Z,977.56
2019-03-10T08:56:25.297Z,977.52
2019-03-10T08:57:25.522Z,977.51
2019-03-10T08:58:25.758Z,977.44
2019-03-10T08:59:25.985Z,977.40
2019-03-10T09:00:26.206Z,977.36
2019-03-10T09:01:26.427Z,977.38
2019-03-10T09:02:26.676Z,977.33
2019-03-10T09:03:26.878Z,977.31
2019-03-10T09:04:27.102Z,977.30
2019-03-10T09:05:27.326Z,977.25
2019-03-10T09:06:27.551Z,977.23
2019-03-10T09:07:27.775Z,977.14
2019-03-10T09:08:28.001Z,977.12
2019-03-10T09:09:28.221Z,977.18
2019-03-10T09:10:28.446Z,977.18
2019-03-10T09:11:28.669Z,977.20
2019-03-10T09:12:28.895Z,977.16
2019-03-10T09:13:29.121Z,977.05
2019-03-10T09:14:29.347Z,977.06
2019-03-10T09:15:29.566Z,977.04
2019-03-10T09:16:29.790Z,977.11
2019-03-10T09:17:30.019Z,977.11
2019-03-10T09:18:30.253Z,977.10
2019-03-10T09:19:30.487Z,977.06
2019-03-10T09:20:30.708Z,976.95
2019-03-10T09:21:30.934Z,976.97
2019-03-10T09:22:31.164Z,976.94
2019-03-10T09:23:31.384Z,976.95
2019-03-10T09:24:31.604Z,976.87
2019-03-10T09:25:31.829Z,976.83
2019-03-10T09:26:32.054Z,976.73
2019-03-10T09:27:32.279Z,976.73
2019-03-10T09:28:32.502Z,976.70
2019-03-10T09:29:32.726Z,976.66
2019-03-10T09:30:32.950Z,976.63
2019-03-10T09:31:33.169Z,976.68
2019-03-10T09:32:33.398Z,976.74
2019-03-10T09:33:33.620Z,976.70
2019-03-10T09:34:33.846Z,976.69
2019-03-10T09:35:34.073Z,976.62
2019-03-10T09:36:34.296Z,976.66
2019-03-10T09:37:34.529Z,976.63
2019-03-10T09:38:34.756Z,976.58
2019-03-10T09:39:34.979Z,976.60
2019-03-10T09:40:35.203Z,976.62
2019-03-10T09:41:35.428Z,976.64
2019-03-10T09:42:35.656Z,976.64
2019-03-10T09:43:35.880Z,976.61
2019-03-10T09:44:36.107Z,976.55
2019-03-10T09:45:36.330Z,976.52
2019-03-10T09:46:36.554Z,976.45
2019-03-10T09:47:36.774Z,976.42
2019-03-10T09:48:36.999Z,976.42
2019-03-10T09:49:37.228Z,976.35
2019-03-10T09:50:37.450Z,976.37
2019-03-10T09:51:37.675Z,976.37
2019-03-10T09:52:37.901Z,976.38
2019-03-10T09:53:38.125Z,976.35
2019-03-10T09:54:38.349Z,976.38
2019-03-10T09:55:38.573Z,976.41
2019-03-10T09:56:38.797Z,976.39
2019-03-10T09:57:39.022Z,976.34
2019-03-10T09:58:39.250Z,976.30
2019-03-10T09:59:39.473Z,976.33
2019-03-10T10:00:39.699Z,976.32
2019-03-10T10:01:39.924Z,976.28
2019-03-10T10:02:40.150Z,976.27
2019-03-10T10:03:40.374Z,976.25
2019-03-10T10:04:40.596Z,976.22
2019-03-10T10:05:40.820Z,976.25
2019-03-10T10:06:41.049Z,976.28
2019-03-10T10:07:41.279Z,976.25
2019-03-10T10:08:41.502Z,976.19
2019-03-10T10:09:41.727Z,976.11
2019-03-10T10:10:41.955Z,976.11
2019-03-10T10:11:42.171Z,976.13
2019-03-10T10:12:42.398Z,976.15
2019-03-10T10:13:42.619Z,976.13
2019-03-10T10:14:42.845Z,976.14
2019-03-10T10:15:43.074Z,976.13
2019-03-10T10:16:43.299Z,976.11
2019-03-10T10:17:43.522Z,976.11
2019-03-10T10:18:43.750Z,976.02
2019-03-10T10:19:43.979Z,975.99
2019-03-10T10:20:44.200Z,975.94
2019-03-10T10:21:44.439Z,975.89
2019-03-10T10:22:44.662Z,975.92
2019-03-10T10:23:44.888Z,975.98
2019-03-10T10:24:45.114Z,976.00
2019-03-10T10:25:45.337Z,976.01
2019-03-10T10:26:45.564Z,976.00
2019-03-10T10:27:45.790Z,975.99
2019-03-10T10:28:46.036Z,976.00
2019-03-10T10:29:46.271Z,976.04
2019-03-10T10:30:46.553Z,976.02
2019-03-10T10:31:46.727Z,975.96
2019-03-10T10:32:46.953Z,975.96
2019-03-10T10:33:47.187Z,975.91
2019-03-10T10:34:47.417Z,975.85
2019-03-10T10:35:47.661Z,975.87
2019-03-10T10:36:47.926Z,975.84
2019-03-10T10:37:48.162Z,975.88
2019-03-10T10:38:48.404Z,975.88
2019-03-10T10:39:48.624Z,975.70
2019-03-10T10:40:48.850Z,975.67
2019-03-10T10:41:49.077Z,975.64
2019-03-10T10:42:49.308Z,975.54
2019-03-10T10:43:49.530Z,975.50
2019-03-10T10:44:49.760Z,975.47
2019-03-10T10:45:49.987Z,975.52
2019-03-10T10:46:50.209Z,975.52
2019-03-10T10:47:50.431Z,975.52
2019-03-10T10:48:50.660Z,975.49
2019-03-10T10:49:50.888Z,975.48
2019-03-10T10:50:51.113Z,975.45
2019-03-10T10:51:51.338Z,975.42
2019-03-10T10:52:51.565Z,975.43
2019-03-10T10:53:51.799Z,975.41
2019-03-10T10:54:52.076Z,975.47
2019-03-10T10:55:52.306Z,975.46
2019-03-10T10:56:52.533Z,975.48
2019-03-10T10:57:52.765Z,975.50
2019-03-10T10:58:53.002Z,975.42
2019-03-10T10:59:53.230Z,975.38
2019-03-10T11:00:53.466Z,975.36
2019-03-10T11:01:53.692Z,975.32
2019-03-10T11:02:53.922Z,975.35
2019-03-10T11:03:54.146Z,975.40
2019-03-10T11:04:54.377Z,975.27
2019-03-10T11:05:54.601Z,975.22
2019-03-10T11:06:54.827Z,975.15
2019-03-10T11:07:55.074Z,975.15
2019-03-10T11:08:55.280Z,975.07
2019-03-10T11:09:55.504Z,974.99
2019-03-10T11:10:55.733Z,975.06
2019-03-10T11:11:55.964Z,975.02
2019-03-10T11:12:56.190Z,975.00
2019-03-10T11:13:56.413Z,974.94
2019-03-10T11:14:56.642Z,974.94
2019-03-10T11:15:56.871Z,975.01
2019-03-10T11:16:57.105Z,974.98
2019-03-10T11:18:08.387Z,974.92
2019-03-10T11:18:57.555Z,974.83
2019-03-10T11:19:57.805Z,974.85
2019-03-10T11:20:58.064Z,974.85
2019-03-10T11:21:58.296Z,974.80
2019-03-10T11:22:58.530Z,974.75
2019-03-10T11:23:58.758Z,974.77
2019-03-10T11:24:58.995Z,974.68
2019-03-10T11:25:59.238Z,974.51
2019-03-10T11:26:59.465Z,974.60
2019-03-10T11:27:59.692Z,974.56
2019-03-10T11:29:03.579Z,974.62
2019-03-10T11:30:00.420Z,974.65
2019-03-10T11:31:00.372Z,974.57
2019-03-10T11:32:00.603Z,974.62
2019-03-10T11:33:00.834Z,974.55
2019-03-10T11:34:01.065Z,974.51
2019-03-10T11:35:01.287Z,974.50
2019-03-10T11:36:01.513Z,974.49
2019-03-10T11:37:01.803Z,974.43
2019-03-10T11:38:01.968Z,974.43
2019-03-10T11:39:02.192Z,974.42
2019-03-10T11:40:02.419Z,974.39
2019-03-10T11:41:02.648Z,974.32
2019-03-10T11:42:02.878Z,974.23
2019-03-10T11:43:03.174Z,974.26
2019-03-10T11:44:03.331Z,974.22
2019-03-10T11:45:03.555Z,974.21
2019-03-10T11:46:03.788Z,974.17
2019-03-10T11:47:04.019Z,974.18
2019-03-10T11:48:04.249Z,974.14
2019-03-10T11:49:04.473Z,974.09
2019-03-10T11:50:04.702Z,974.05
2019-03-10T11:51:04.937Z,973.97
2019-03-10T11:52:05.158Z,974.06
2019-03-10T11:53:05.387Z,974.04
2019-03-10T11:54:05.626Z,974.07
2019-03-10T11:55:05.881Z,974.07
2019-03-10T11:56:06.093Z,974.14
2019-03-10T11:57:06.328Z,974.07
2019-03-10T11:58:06.555Z,974.25
2019-03-10T11:59:06.780Z,974.18
2019-03-10T12:00:07.013Z,974.17
2019-03-10T12:01:07.251Z,974.18
2019-03-10T12:02:15.506Z,974.19
2019-03-10T12:03:07.723Z,974.16
2019-03-10T12:04:10.259Z,974.10
2019-03-10T12:05:08.206Z,974.14
2019-03-10T12:06:08.448Z,974.22
2019-03-10T12:07:08.725Z,974.23
2019-03-10T12:08:09.017Z,974.23
2019-03-10T12:09:09.121Z,974.11
2019-03-10T12:10:09.344Z,974.11
2019-03-10T12:11:09.584Z,974.12
2019-03-10T12:12:09.819Z,974.00
2019-03-10T12:13:10.048Z,973.96
2019-03-10T12:14:10.274Z,973.89
2019-03-10T12:15:10.521Z,973.83
2019-03-10T12:16:10.747Z,973.80
2019-03-10T12:17:11.016Z,973.72
2019-03-10T12:18:11.253Z,973.63
2019-03-10T12:19:11.545Z,973.67
2019-03-10T12:20:11.773Z,973.62
2019-03-10T12:21:12.015Z,973.57
2019-03-10T12:22:12.340Z,973.59
2019-03-10T12:23:12.464Z,973.55
2019-03-10T12:24:12.690Z,973.49
2019-03-10T12:25:12.940Z,973.42
2019-03-10T12:26:13.185Z,973.33
2019-03-10T12:27:13.465Z,973.37
2019-03-10T12:28:13.621Z,973.37
2019-03-10T12:29:13.981Z,973.40
2019-03-10T12:30:14.207Z,973.42
2019-03-10T12:31:14.433Z,973.61